Time;durP1;ratioP1;P1;durP2;ratioP2;P2;SDS_P1;SDS_P2;PMS_P1;PMS_P2;Temp;Humidity;BMP_temperature;BMP_pressure;BME280_temperature;BME280_humidity;BME280_pressure;Samples;Min_cycle;Max_cycle;Signal;HPM_P1;HPM_P2
2023/06/22 00:02:17;;;;;;;23.57;18.40;;;;;;;-141.97;65.77;47449.88;4994912;28;20174;-78
2023/06/22 00:04:43;;;;;;;22.60;18.13;;;;;;;-141.97;65.88;47461.41;4994395;28;20164;-80
2023/06/22 00:07:08;;;;;;;22.60;17.97;;;;;;;-141.97;65.56;47480.63;4994930;28;20163;-79
2023/06/22 00:09:34;;;;;;;23.93;17.87;;;;;;;-141.97;65.00;47415.28;4994863;28;20752;-81
2023/06/22 00:12:02;;;;;;;24.57;17.90;;;;;;;-141.97;64.70;47472.94;4995068;28;20203;-81
2023/06/22 00:14:27;;;;;;;21.13;17.17;;;;;;;-141.97;64.25;47494.09;4994243;28;20198;-81
2023/06/22 00:16:54;;;;;;;23.47;17.43;;;;;;;-141.97;63.65;47469.09;4995106;28;20163;-80
2023/06/22 00:19:21;;;;;;;21.70;17.50;;;;;;;-141.97;63.94;47465.25;4994795;28;20168;-80
2023/06/22 00:21:52;;;;;;;23.23;17.47;;;;;;;-141.97;63.65;47463.34;4993974;28;20298;-80
2023/06/22 00:24:21;;;;;;;20.60;16.67;;;;;;;-141.97;64.07;47428.75;5002804;28;20270;-79
2023/06/22 00:26:50;;;;;;;23.10;17.23;;;;;;;-141.97;64.60;47413.38;5003639;28;20231;-79
2023/06/22 00:29:15;;;;;;;20.57;16.97;;;;;;;-141.97;65.61;47461.41;5004606;28;20191;-80
2023/06/22 00:31:41;;;;;;;20.87;17.07;;;;;;;-141.97;65.96;47471.03;5003112;28;20169;-80
2023/06/22 00:34:08;;;;;;;21.23;17.30;;;;;;;-141.97;66.71;47465.25;5005097;28;20258;-79
2023/06/22 00:36:34;;;;;;;21.47;17.60;;;;;;;-141.97;66.83;47603.66;5002868;28;20173;-82
2023/06/22 00:39:00;;;;;;;24.20;17.97;;;;;;;-141.97;66.98;47522.91;5004727;28;20526;-79
2023/06/22 00:41:28;;;;;;;23.93;18.27;;;;;;;-141.97;67.36;47432.59;5002864;28;20243;-79
2023/06/22 00:43:54;;;;;;;24.37;18.57;;;;;;;-141.97;67.62;47461.41;5002913;28;20213;-79
2023/06/22 00:46:19;;;;;;;23.17;17.50;;;;;;;-141.97;68.00;47478.72;5004926;28;20202;-79
2023/06/22 00:48:44;;;;;;;21.97;17.10;;;;;;;-141.97;67.38;47465.25;5002657;28;20195;-80
2023/06/22 00:51:10;;;;;;;21.13;17.17;;;;;;;-141.97;67.16;47482.56;5002977;28;20536;-79
2023/06/22 00:53:37;;;;;;;24.07;17.70;;;;;;;-141.97;67.81;47482.56;5004460;28;20182;-78
2023/06/22 00:56:03;;;;;;;24.17;18.13;;;;;;;-141.97;69.11;47432.59;5004359;28;20187;-80
2023/06/22 00:58:29;;;;;;;24.10;18.17;;;;;;;-141.97;69.52;47486.41;5003438;28;20223;-79
2023/06/22 01:00:55;;;;;;;24.13;17.53;;;;;;;-141.97;69.31;47403.75;5002195;28;20171;-78
2023/06/22 01:03:20;;;;;;;22.60;17.13;;;;;;;-141.97;68.68;47674.78;5002726;28;20182;-80
2023/06/22 01:05:47;;;;;;;22.50;16.63;;;;;;;-141.97;68.25;47403.75;5001652;28;20199;-80
2023/06/22 01:08:15;;;;;;;24.23;18.13;;;;;;;-141.97;68.94;47511.38;5002507;28;20690;-79
2023/06/22 01:11:08;;;;;;;21.80;17.80;;;;;;;-141.97;70.14;47484.47;5003982;28;20774;-79
2023/06/22 01:14:11;;;;;;;24.47;18.43;;;;;;;-141.97;70.15;47503.69;5005033;28;20170;-79
2023/06/22 01:16:41;;;;;;;25.50;18.50;;;;;;;-141.97;70.07;47499.84;5004518;28;20240;-79
2023/06/22 01:19:29;;;;;;;22.50;17.90;;;;;;;-141.97;70.07;47497.94;5004705;28;20241;-78
2023/06/22 01:21:56;;;;;;;26.13;17.07;;;;;;;-141.97;68.50;47409.53;4999919;28;20612;-80
2023/06/22 01:24:28;;;;;;;22.37;18.13;;;;;;;-141.97;68.10;47484.47;4994400;28;20174;-81
2023/06/22 01:27:11;;;;;;;20.87;17.23;;;;;;;-141.97;68.49;47488.31;4994023;28;20167;-80
2023/06/22 01:29:38;;;;;;;21.53;16.80;;;;;;;-141.97;67.86;47496.00;4992969;28;20222;-79
2023/06/22 01:32:05;;;;;;;22.73;17.20;;;;;;;-141.97;68.19;47474.88;4994167;28;20255;-80
2023/06/22 01:34:32;;;;;;;23.13;16.73;;;;;;;-141.97;67.38;47453.72;4994208;28;20159;-80
2023/06/22 01:36:59;;;;;;;21.90;17.37;;;;;;;-141.97;67.87;47496.00;4993350;28;20171;-79
2023/06/22 01:39:26;;;;;;;22.13;17.40;;;;;;;-141.97;68.00;47497.94;4993815;28;20529;-79
2023/06/22 01:41:53;;;;;;;23.23;17.37;;;;;;;-141.97;68.49;47369.16;4993109;28;20156;-77
2023/06/22 01:44:18;;;;;;;22.70;17.07;;;;;;;-141.97;68.76;47484.47;4993119;28;20175;-81
2023/06/22 01:46:45;;;;;;;24.43;17.70;;;;;;;-141.97;68.82;47492.16;4993831;28;20175;-80
2023/06/22 01:49:10;;;;;;;21.27;17.07;;;;;;;-141.97;69.19;47421.06;4993222;28;20631;-80
2023/06/22 01:51:36;;;;;;;25.73;18.37;;;;;;;-141.97;69.15;47496.00;4993425;28;20167;-79
2023/06/22 01:54:02;;;;;;;25.30;18.17;;;;;;;-141.97;69.04;47609.41;4993177;28;20617;-79
2023/06/22 01:56:27;;;;;;;25.27;18.23;;;;;;;-141.97;68.88;47519.06;4993017;28;20159;-81
2023/06/22 01:59:07;;;;;;;25.03;18.10;;;;;;;-141.97;68.74;47521.00;4993441;28;20171;-80
2023/06/22 02:01:41;;;;;;;23.07;17.33;;;;;;;-141.97;68.91;47521.00;4992646;28;20171;-79
2023/06/22 02:04:13;;;;;;;23.27;18.00;;;;;;;-141.97;70.52;47415.28;4992987;28;20246;-79
2023/06/22 02:06:43;;;;;;;26.60;18.60;;;;;;;-141.97;71.52;47592.13;4992969;28;20318;-80
2023/06/22 02:09:21;;;;;;;24.53;17.87;;;;;;;-141.97;71.96;47521.00;4992478;28;20239;-81
2023/06/22 02:11:48;;;;;;;24.13;19.23;;;;;;;-141.97;74.60;47486.41;4991554;28;20178;-80
2023/06/22 02:14:13;;;;;;;27.70;19.30;;;;;;;-141.97;76.42;47524.84;4992674;28;20172;-80
2023/06/22 02:16:40;;;;;;;26.30;19.90;;;;;;;-141.97;77.79;47534.44;4992677;28;20175;-81
2023/06/22 02:19:06;;;;;;;28.17;20.03;;;;;;;-141.97;78.21;47478.72;4992958;28;20226;-80
2023/06/22 02:21:32;;;;;;;25.20;18.97;;;;;;;-141.97;78.16;47524.84;4992726;28;20167;-79
2023/06/22 02:23:58;;;;;;;25.90;19.47;;;;;;;-141.97;77.05;47511.38;4992099;28;20218;-79
2023/06/22 02:26:25;;;;;;;24.63;18.50;;;;;;;-141.97;76.08;47526.75;4992549;28;20254;-79
2023/06/22 02:28:51;;;;;;;23.37;18.40;;;;;;;-141.97;75.23;47496.00;4992594;28;20547;-80
2023/06/22 02:31:16;;;;;;;23.03;18.27;;;;;;;-141.97;75.50;47507.53;4992267;28;20250;-79
2023/06/22 02:33:43;;;;;;;23.93;18.57;;;;;;;-141.97;76.50;47438.34;4992506;28;20167;-80
2023/06/22 02:36:09;;;;;;;26.70;19.97;;;;;;;-141.97;77.83;47496.00;4992558;28;20655;-81
2023/06/22 02:38:37;;;;;;;27.13;20.63;;;;;;;-141.97;78.15;47480.63;4992457;28;20164;-81
2023/06/22 02:41:03;;;;;;;27.10;19.80;;;;;;;-141.97;78.80;47472.94;4991988;28;20191;-80
2023/06/22 02:43:28;;;;;;;30.53;20.57;;;;;;;-141.97;78.71;47534.44;4992236;28;20203;-80
2023/06/22 02:45:54;;;;;;;27.97;21.00;;;;;;;-141.97;79.37;47524.84;4992227;28;20174;-79
2023/06/22 02:48:19;;;;;;;27.90;21.07;;;;;;;-141.97;80.31;47488.31;4992974;28;20199;-79
2023/06/22 02:50:45;;;;;;;28.37;20.30;;;;;;;-141.97;79.63;47557.53;5019526;28;20316;-81
2023/06/22 02:53:10;;;;;;;27.47;19.27;;;;;;;-141.97;78.93;47538.28;4996493;28;20183;-82
2023/06/22 02:55:36;;;;;;;27.83;19.40;;;;;;;-141.97;78.67;47499.84;4992491;28;20245;-80
2023/06/22 02:58:04;;;;;;;28.07;21.10;;;;;;;-141.97;79.54;47496.00;4991994;28;20178;-81
2023/06/22 03:00:31;;;;;;;27.63;20.40;;;;;;;-141.97;79.01;47511.38;4992011;28;20652;-80
2023/06/22 03:02:57;;;;;;;25.50;19.70;;;;;;;-141.97;79.04;47540.22;4992661;28;20526;-81
2023/06/22 03:05:23;;;;;;;24.93;18.67;;;;;;;-141.97;79.16;47526.75;4992397;28;20163;-81
2023/06/22 03:07:49;;;;;;;24.90;18.13;;;;;;;-141.97;78.24;47524.84;4992473;28;20178;-78
2023/06/22 03:10:15;;;;;;;23.87;17.77;;;;;;;-141.97;77.90;47497.94;5006567;28;20738;-80
2023/06/22 03:12:42;;;;;;;24.30;17.57;;;;;;;-141.97;77.93;47559.44;4991921;28;20614;-79
2023/06/22 03:15:12;;;;;;;20.20;16.10;;;;;;;-141.97;76.63;47513.31;4995763;28;20206;-79
2023/06/22 03:17:39;;;;;;;22.93;16.17;;;;;;;-141.97;75.36;47572.91;4995745;28;20163;-79
2023/06/22 03:20:10;;;;;;;21.13;16.07;;;;;;;-141.97;74.57;47484.47;4995462;28;20185;-80
2023/06/22 03:22:36;;;;;;;23.73;16.97;;;;;;;-141.97;73.48;47490.25;4995378;28;20179;-80
2023/06/22 03:25:02;;;;;;;20.63;15.80;;;;;;;-141.97;72.46;47517.16;4995614;28;20167;-79
2023/06/22 03:27:28;;;;;;;24.33;16.47;;;;;;;-141.97;72.29;47486.41;4995797;28;20194;-79
2023/06/22 03:29:53;;;;;;;24.43;16.50;;;;;;;-141.97;71.69;47490.25;4995211;28;20191;-79
2023/06/22 03:32:18;;;;;;;24.57;16.90;;;;;;;-141.97;71.13;47405.69;4995128;28;20178;-80
2023/06/22 03:34:46;;;;;;;22.77;16.97;;;;;;;-141.97;71.92;47490.25;5003696;28;20258;-80
2023/06/22 03:37:15;;;;;;;27.60;17.30;;;;;;;-141.97;71.76;47503.69;5005940;28;20174;-80
2023/06/22 03:39:41;;;;;;;25.90;17.27;;;;;;;-141.97;71.64;47461.41;5005066;28;20175;-79
2023/06/22 03:42:10;;;;;;;22.70;17.13;;;;;;;-141.97;71.52;47544.06;5003593;28;20177;-79
2023/06/22 03:44:36;;;;;;;22.40;16.90;;;;;;;-141.97;71.40;47526.75;5005300;28;20231;-80
2023/06/22 03:47:04;;;;;;;24.37;17.40;;;;;;;-141.97;70.99;47626.72;5007287;28;20170;-79
2023/06/22 03:49:30;;;;;;;22.23;16.90;;;;;;;-141.97;70.91;47492.16;5004643;28;20691;-79
2023/06/22 03:51:55;;;;;;;23.63;16.93;;;;;;;-141.97;70.56;47511.38;5003640;28;20241;-80
2023/06/22 03:54:21;;;;;;;25.07;16.70;;;;;;;-141.97;70.67;47480.63;5003766;28;20551;-82
2023/06/22 03:56:46;;;;;;;21.47;16.50;;;;;;;-141.97;70.69;47536.38;5005626;28;20498;-79
2023/06/22 03:59:11;;;;;;;28.50;17.77;;;;;;;-141.97;71.21;47536.38;5004554;28;20638;-80
2023/06/22 04:01:37;;;;;;;24.67;17.97;;;;;;;-141.97;71.50;47590.19;5003784;28;20175;-80
2023/06/22 04:04:02;;;;;;;23.07;17.27;;;;;;;-141.97;71.23;47526.75;5003965;28;20171;-80
2023/06/22 04:06:28;;;;;;;24.50;17.30;;;;;;;-141.97;70.85;47488.31;5003826;28;20657;-80
2023/06/22 04:08:53;;;;;;;25.77;18.17;;;;;;;-141.97;71.20;47480.63;5003847;28;20226;-79
2023/06/22 04:11:18;;;;;;;24.20;18.13;;;;;;;-141.97;72.02;47447.97;5000037;28;20629;-79
2023/06/22 04:13:44;;;;;;;27.53;17.53;;;;;;;-141.97;73.25;47526.75;4994570;28;20186;-78
2023/06/22 04:16:10;;;;;;;26.33;18.07;;;;;;;-141.97;72.78;47421.06;4994564;28;20527;-79
2023/06/22 04:18:35;;;;;;;25.27;17.90;;;;;;;-141.97;72.41;47526.75;4994998;28;20608;-79
2023/06/22 04:21:02;;;;;;;26.03;18.03;;;;;;;-141.97;71.51;47486.41;5002725;28;20200;-79
2023/06/22 04:23:27;;;;;;;27.77;17.57;;;;;;;-141.97;70.63;47517.16;5032375;28;20594;-78
2023/06/22 04:25:52;;;;;;;25.70;17.77;;;;;;;-141.97;69.83;47415.28;5032770;28;20166;-79
2023/06/22 04:28:18;;;;;;;23.63;17.17;;;;;;;-141.97;69.27;47532.53;5032367;28;20245;-78
2023/06/22 04:30:46;;;;;;;24.30;17.27;;;;;;;-141.97;68.39;47511.38;5034481;28;20166;-79
2023/06/22 04:33:15;;;;;;;21.97;16.60;;;;;;;-141.97;68.50;47532.53;5034251;28;20162;-79
2023/06/22 04:35:41;;;;;;;22.33;17.57;;;;;;;-141.97;69.89;47476.78;5032884;28;20661;-79
2023/06/22 04:38:06;;;;;;;21.43;17.30;;;;;;;-141.97;71.64;47488.31;5033965;28;20212;-79
2023/06/22 04:40:35;;;;;;;22.87;17.67;;;;;;;-141.97;72.60;47419.13;5034046;28;20178;-77
2023/06/22 04:43:02;;;;;;;26.87;19.60;;;;;;;-141.97;73.39;47507.53;4992978;28;20796;-79
2023/06/22 04:45:31;;;;;;;24.27;18.30;;;;;;;-141.97;73.12;47522.91;5002001;28;20183;-78
2023/06/22 04:47:57;;;;;;;23.43;17.77;;;;;;;-141.97;72.57;47536.38;4994236;28;20170;-77
2023/06/22 04:50:23;;;;;;;35.27;27.83;;;;;;;-141.97;72.21;47544.06;5010457;28;20167;-79
2023/06/22 04:52:49;;;;;;;25.03;18.77;;;;;;;-141.97;71.44;47511.38;5013095;28;20841;-79
2023/06/22 04:55:18;;;;;;;28.00;20.63;;;;;;;-141.97;70.73;47517.16;5013206;28;20277;-80
2023/06/22 04:57:50;;;;;;;26.67;19.33;;;;;;;-141.97;70.70;47534.44;5012809;28;20216;-80
2023/06/22 05:00:19;;;;;;;27.27;18.97;;;;;;;-141.97;69.55;47490.25;5013493;28;20158;-79
2023/06/22 05:02:46;;;;;;;25.77;18.53;;;;;;;-141.97;68.18;47457.56;5002472;28;20250;-79
2023/06/22 05:05:16;;;;;;;23.53;17.17;;;;;;;-141.97;66.39;47515.22;5004922;28;20529;-79
2023/06/22 05:07:48;;;;;;;22.50;18.03;;;;;;;-141.97;65.54;47501.78;5011743;28;20301;-79
2023/06/22 05:10:14;;;;;;;22.27;16.90;;;;;;;-141.97;64.38;47469.09;5011152;28;20300;-80
2023/06/22 05:12:40;;;;;;;19.90;16.10;;;;;;;-141.97;63.87;47490.25;5011639;28;20174;-78
2023/06/22 05:15:07;;;;;;;22.27;16.03;;;;;;;-141.97;63.79;47494.09;5013115;28;20187;-79
2023/06/22 05:17:32;;;;;;;22.27;16.37;;;;;;;-141.97;62.54;47453.72;5013039;28;20631;-77
2023/06/22 05:19:58;;;;;;;24.20;16.57;;;;;;;-141.97;62.60;47469.09;5011615;28;20245;-80
2023/06/22 05:22:23;;;;;;;23.13;16.07;;;;;;;-141.97;61.69;47488.31;5012795;28;20167;-80
2023/06/22 05:24:48;;;;;;;22.20;15.10;;;;;;;-141.97;59.75;47480.63;5013313;28;20201;-80
2023/06/22 05:27:14;;;;;;;20.90;14.90;;;;;;;-141.97;58.90;47490.25;5012053;28;20171;-78
2023/06/22 05:29:40;;;;;;;22.27;15.93;;;;;;;-141.97;57.83;47440.28;5013004;28;20202;-79
2023/06/22 05:32:06;;;;;;;20.53;15.87;;;;;;;-141.97;57.48;47484.47;5013298;28;20186;-80
2023/06/22 05:34:32;;;;;;;19.63;14.30;;;;;;;-141.97;56.69;47394.16;5012840;28;20587;-81
2023/06/22 05:36:59;;;;;;;19.27;14.20;;;;;;;-141.97;56.54;47465.25;5012337;28;20163;-80
2023/06/22 05:39:24;;;;;;;24.83;15.57;;;;;;;-141.97;56.05;47434.50;4993568;28;20703;-79
2023/06/22 05:41:50;;;;;;;18.43;13.90;;;;;;;-141.97;55.73;47507.53;4993174;28;20171;-79
2023/06/22 05:44:15;;;;;;;16.70;14.10;;;;;;;-141.97;55.31;47453.72;4982674;28;20242;-81
2023/06/22 05:46:48;;;;;;;16.30;13.50;;;;;;;-141.97;54.35;47446.03;5016045;28;20233;-80
2023/06/22 05:49:14;;;;;;;19.80;14.30;;;;;;;-141.97;53.96;47447.97;5032402;28;20190;-79
2023/06/22 05:51:43;;;;;;;19.60;13.57;;;;;;;-141.97;53.51;47430.66;5032236;28;20532;-79
2023/06/22 05:54:08;;;;;;;16.57;12.47;;;;;;;-141.97;53.21;47457.56;5032603;28;20166;-80
2023/06/22 05:56:34;;;;;;;16.67;14.13;;;;;;;-141.97;52.50;47424.91;5036938;28;20194;-79
2023/06/22 05:59:00;;;;;;;15.80;12.85;;;;;;;-141.97;51.62;47472.94;5033714;28;20164;-79
2023/06/22 06:01:25;;;;;;;17.30;13.43;;;;;;;-141.97;51.58;47438.34;5032349;28;20165;-79
2023/06/22 06:03:52;;;;;;;16.77;13.35;;;;;;;-141.97;51.12;47422.97;5032113;28;20634;-78
2023/06/22 06:06:18;;;;;;;15.40;12.68;;;;;;;-141.97;49.89;47478.72;5031996;28;20161;-80
2023/06/22 06:08:43;;;;;;;17.77;13.65;;;;;;;-141.97;49.84;47472.94;5031417;28;20289;-79
2023/06/22 06:11:09;;;;;;;17.25;13.98;;;;;;;-141.97;49.20;47446.03;5031483;28;20173;-80
2023/06/22 06:13:34;;;;;;;21.17;13.93;;;;;;;-141.97;49.31;47446.03;5031810;28;20198;-79
2023/06/22 06:16:00;;;;;;;19.20;13.50;;;;;;;-141.97;48.37;47413.38;5032135;28;20169;-79
2023/06/22 06:18:25;;;;;;;18.35;13.20;;;;;;;-141.97;48.44;47447.97;5031910;28;20225;-80
2023/06/22 06:20:51;;;;;;;16.92;13.20;;;;;;;-141.97;48.41;47384.53;5031973;28;20169;-79
2023/06/22 06:23:16;;;;;;;16.30;12.93;;;;;;;-141.97;48.75;47426.81;5032014;28;20521;-79
2023/06/22 06:25:42;;;;;;;16.83;13.57;;;;;;;-141.97;48.76;47407.59;5031172;28;20172;-79
2023/06/22 06:28:07;;;;;;;18.60;13.35;;;;;;;-141.97;47.63;47417.22;5030349;28;20251;-81
2023/06/22 06:30:33;;;;;;;18.48;13.40;;;;;;;-141.97;48.18;47440.28;5030892;28;20175;-79
2023/06/22 06:32:58;;;;;;;15.90;13.82;;;;;;;-141.97;47.72;47405.69;5029334;28;20610;-79
2023/06/22 06:35:23;;;;;;;16.73;13.18;;;;;;;-141.97;47.57;47430.66;5030480;28;20171;-78
2023/06/22 06:37:50;;;;;;;16.08;13.60;;;;;;;-141.97;46.91;47374.94;5045486;28;20178;-80
2023/06/22 06:40:17;;;;;;;17.70;13.48;;;;;;;-141.97;46.96;47396.06;5030780;28;20189;-79
2023/06/22 06:42:45;;;;;;;20.58;13.68;;;;;;;-141.97;46.10;47382.63;5020972;28;20274;-79
2023/06/22 06:45:15;;;;;;;15.88;13.98;;;;;;;-141.97;46.01;47390.31;5030499;28;20164;-80
2023/06/22 06:47:53;;;;;;;18.13;13.32;;;;;;;-141.97;45.16;47407.59;5030452;28;20191;-80
2023/06/22 06:50:19;;;;;;;15.50;13.02;;;;;;;-141.97;45.02;47369.16;5030947;28;20166;-79
2023/06/22 06:52:44;;;;;;;16.10;13.27;;;;;;;-141.97;44.87;47386.47;5031324;28;20176;-79
2023/06/22 06:55:11;;;;;;;15.02;13.32;;;;;;;-141.97;45.08;47380.69;5030384;28;20269;-80
2023/06/22 06:57:38;;;;;;;15.45;13.30;;;;;;;-141.97;44.92;47290.38;5029601;28;20170;-81
2023/06/22 07:00:15;;;;;;;15.35;13.05;;;;;;;-141.97;43.74;47376.84;5030857;28;20163;-80
2023/06/22 07:02:42;;;;;;;16.73;12.50;;;;;;;-141.97;43.17;47359.56;5030023;28;20173;-79
2023/06/22 07:05:09;;;;;;;14.52;12.45;;;;;;;-141.97;43.09;47373.00;5030567;28;20158;-80
2023/06/22 07:07:35;;;;;;;18.02;12.00;;;;;;;-141.97;42.40;47670.91;5030758;28;20165;-80
2023/06/22 07:10:00;;;;;;;15.30;12.73;;;;;;;-141.97;42.40;47263.47;5030831;28;20236;-80
2023/06/22 07:12:26;;;;;;;13.18;11.63;;;;;;;-141.97;42.06;47357.63;5030695;28;20183;-78
2023/06/22 07:15:04;;;;;;;13.98;12.10;;;;;;;-141.97;42.72;47384.53;5030448;28;20181;-78
2023/06/22 07:17:29;;;;;;;16.35;12.20;;;;;;;-141.97;43.42;47617.09;5031126;28;20160;-79
2023/06/22 07:19:55;;;;;;;14.68;12.60;;;;;;;-141.97;43.61;47419.13;5030715;28;20165;-80
2023/06/22 07:22:20;;;;;;;14.35;12.18;;;;;;;-141.97;43.70;47326.88;5031318;28;20189;-80
2023/06/22 07:24:45;;;;;;;17.48;12.40;;;;;;;-141.97;43.24;47380.69;5029729;28;20185;-81
2023/06/22 07:27:12;;;;;;;18.02;12.68;;;;;;;-141.97;43.57;47572.91;5030369;28;20256;-82
2023/06/22 07:29:39;;;;;;;16.90;12.43;;;;;;;-141.97;43.27;47384.53;5030695;28;20621;-80
2023/06/22 07:32:05;;;;;;;18.08;12.75;;;;;;;-141.97;43.48;47338.41;5030163;28;20236;-79
2023/06/22 07:34:30;;;;;;;13.63;11.25;;;;;;;-141.97;41.93;47401.84;5029793;28;20323;-80
2023/06/22 07:36:56;;;;;;;15.65;12.27;;;;;;;-141.97;42.64;47353.78;5030415;28;20172;-80
2023/06/22 07:39:25;;;;;;;15.68;11.60;;;;;;;-141.97;41.89;47374.94;5030510;28;20173;-79
2023/06/22 07:41:51;;;;;;;15.00;11.55;;;;;;;-141.97;40.93;47363.41;5030471;28;20177;-80
2023/06/22 07:44:16;;;;;;;14.23;11.48;;;;;;;-141.97;41.29;47353.78;5019949;28;20238;-79
2023/06/22 07:46:42;;;;;;;15.25;11.75;;;;;;;-141.97;40.29;47392.22;5030718;28;20164;-80
2023/06/22 07:49:08;;;;;;;13.18;10.85;;;;;;;-141.97;40.14;47376.84;5030338;28;20196;-80
2023/06/22 07:51:34;;;;;;;13.48;11.32;;;;;;;-141.97;39.87;47371.09;5031480;28;20228;-80
2023/06/22 07:53:59;;;;;;;15.40;12.27;;;;;;;-141.97;40.37;47338.41;5030321;28;20173;-79
2023/06/22 07:56:24;;;;;;;17.50;12.32;;;;;;;-141.97;39.96;47365.31;5030444;28;20541;-79
2023/06/22 07:58:50;;;;;;;14.88;11.88;;;;;;;-141.97;39.04;47328.81;5030664;28;20271;-80
2023/06/22 08:01:20;;;;;;;13.52;11.02;;;;;;;-141.97;38.41;47323.03;5032489;28;20173;-78
2023/06/22 08:03:48;;;;;;;13.43;11.88;;;;;;;-141.97;39.10;47396.06;5036320;28;20173;-80
2023/06/22 08:06:13;;;;;;;14.68;11.90;;;;;;;-141.97;38.71;47344.19;5033772;28;20249;-79
2023/06/22 08:08:39;;;;;;;15.13;11.13;;;;;;;-141.97;39.20;47315.34;5033393;28;20229;-79
2023/06/22 08:11:05;;;;;;;13.18;11.25;;;;;;;-141.97;38.99;47361.47;5032870;28;20173;-79
2023/06/22 08:13:31;;;;;;;12.50;11.20;;;;;;;-141.97;39.04;47392.22;5033116;28;20215;-80
2023/06/22 08:15:56;;;;;;;13.73;10.98;;;;;;;-141.97;38.63;47349.94;5034024;28;20200;-80
2023/06/22 08:18:22;;;;;;;16.38;10.73;;;;;;;-141.97;37.42;47334.56;5033791;28;20216;-79
2023/06/22 08:20:47;;;;;;;16.50;10.90;;;;;;;-141.97;36.76;47346.09;5034462;28;20170;-80
2023/06/22 08:23:13;;;;;;;14.55;10.32;;;;;;;-141.97;37.13;47323.03;5034511;28;20174;-80
2023/06/22 08:25:38;;;;;;;11.68;10.10;;;;;;;-141.97;37.26;47346.09;5034336;28;20260;-80
2023/06/22 08:28:04;;;;;;;14.13;10.85;;;;;;;-141.97;37.52;47221.19;5033877;28;20172;-80
2023/06/22 08:30:29;;;;;;;14.57;11.23;;;;;;;-141.97;37.40;47271.16;5034236;28;20172;-81
2023/06/22 08:32:55;;;;;;;12.82;11.35;;;;;;;-141.97;37.28;47225.03;5033573;28;20173;-79
2023/06/22 08:35:22;;;;;;;14.15;10.45;;;;;;;-141.97;35.76;47296.13;5032572;28;20189;-81
2023/06/22 08:37:52;;;;;;;11.52;10.25;;;;;;;-141.97;34.70;47242.31;5034170;28;20598;-80
2023/06/22 08:40:19;;;;;;;11.80;10.50;;;;;;;-141.97;35.14;47330.72;5034552;28;20150;-80
2023/06/22 08:42:46;;;;;;;12.95;10.40;;;;;;;-141.97;35.15;47232.72;5024512;28;20174;-82
2023/06/22 08:45:12;;;;;;;11.43;10.25;;;;;;;-141.97;35.22;47313.44;5034096;28;20174;-80
2023/06/22 08:47:38;;;;;;;14.13;9.43;;;;;;;-141.97;35.40;47098.19;5033057;28;20174;-80
2023/06/22 08:50:04;;;;;;;12.00;10.85;;;;;;;-141.97;35.31;47384.53;5031775;28;20209;-81
2023/06/22 08:52:30;;;;;;;11.27;10.00;;;;;;;-141.97;34.68;47198.09;5034070;28;20643;-80
2023/06/22 08:54:55;;;;;;;12.77;10.57;;;;;;;-141.97;34.28;47286.53;5033260;28;20205;-81
2023/06/22 08:57:21;;;;;;;11.45;9.50;;;;;;;-141.97;33.22;47203.88;5033271;28;20558;-80
2023/06/22 08:59:46;;;;;;;11.07;9.02;;;;;;;-141.97;32.88;47265.38;5033807;28;20155;-79
2023/06/22 09:02:12;;;;;;;10.68;9.00;;;;;;;-141.97;33.40;47142.38;5032908;28;20532;-80
2023/06/22 09:04:37;;;;;;;10.88;9.55;;;;;;;-141.97;32.74;47080.88;5033413;28;20174;-80
2023/06/22 09:07:04;;;;;;;12.00;9.55;;;;;;;-141.97;32.48;47142.38;5033405;28;20572;-81
2023/06/22 09:09:29;;;;;;;11.98;9.60;;;;;;;-141.97;32.49;47269.22;5033042;28;20230;-80
2023/06/22 09:11:55;;;;;;;12.05;10.05;;;;;;;-141.97;32.86;47253.84;5033320;28;20649;-80
2023/06/22 09:14:20;;;;;;;10.48;9.48;;;;;;;-141.97;32.57;47338.41;5032940;28;20185;-81
2023/06/22 09:16:46;;;;;;;11.85;9.75;;;;;;;-141.97;32.27;47630.56;5032925;28;20177;-80
2023/06/22 09:19:11;;;;;;;14.35;9.98;;;;;;;-141.97;32.41;47203.88;5033383;28;20158;-80
2023/06/22 09:21:36;;;;;;;11.88;10.00;;;;;;;-141.97;32.36;47167.38;5033144;28;20533;-80
2023/06/22 09:24:02;;;;;;;10.45;9.45;;;;;;;-141.97;32.52;47269.22;5032565;28;20240;-80
2023/06/22 09:26:28;;;;;;;10.05;9.02;;;;;;;-141.97;32.08;47228.88;5032561;28;20162;-78
2023/06/22 09:28:53;;;;;;;10.75;9.68;;;;;;;-141.97;31.55;47253.84;5032655;28;20209;-80
2023/06/22 09:31:25;;;;;;;11.77;9.68;;;;;;;-141.97;30.48;47244.25;5032448;28;20244;-80
2023/06/22 09:33:50;;;;;;;10.63;9.52;;;;;;;-141.97;30.51;47196.19;5032119;28;20554;-80
2023/06/22 09:36:17;;;;;;;10.77;9.73;;;;;;;-141.97;31.47;47321.13;5031299;28;20182;-81
2023/06/22 09:38:42;;;;;;;10.65;9.13;;;;;;;-141.97;31.31;47299.97;5032803;28;20654;-80
2023/06/22 09:41:07;;;;;;;9.80;8.80;;;;;;;-141.97;31.61;47238.47;5033171;28;20158;-80
2023/06/22 09:43:36;;;;;;;10.75;9.65;;;;;;;-141.97;32.06;47207.72;5022515;28;20233;-81
2023/06/22 09:46:02;;;;;;;10.95;9.57;;;;;;;-141.97;31.32;47052.06;5032686;28;20167;-80
2023/06/22 09:48:29;;;;;;;10.65;9.10;;;;;;;-141.97;31.41;47102.03;5032694;28;20193;-80
2023/06/22 09:50:54;;;;;;;11.75;9.30;;;;;;;-141.97;31.64;47188.50;5032669;28;20161;-80
2023/06/22 09:53:20;;;;;;;11.18;9.10;;;;;;;-141.97;30.93;47265.38;5032401;28;20166;-80
2023/06/22 09:55:46;;;;;;;9.18;8.27;;;;;;;-141.97;30.05;47259.63;5031905;28;20615;-81
2023/06/22 09:58:12;;;;;;;9.93;8.93;;;;;;;-141.97;30.80;47215.41;5033007;28;20162;-81
2023/06/22 10:00:37;;;;;;;12.38;9.40;;;;;;;-141.97;30.83;47292.28;5033076;28;20173;-80
2023/06/22 10:03:03;;;;;;;9.38;8.48;;;;;;;-141.97;30.11;47230.78;5032544;28;20249;-80
2023/06/22 10:05:28;;;;;;;9.40;8.50;;;;;;;-141.97;30.45;47261.53;5031015;28;20170;-80
2023/06/22 10:07:53;;;;;;;9.90;8.90;;;;;;;-141.97;30.18;47251.94;5032104;28;20197;-81
2023/06/22 10:10:19;;;;;;;10.48;9.32;;;;;;;-141.97;29.96;47005.94;5032352;28;20206;-80
2023/06/22 10:12:55;;;;;;;10.60;9.10;;;;;;;-141.97;30.88;47234.63;5030995;28;20168;-80
2023/06/22 10:15:21;;;;;;;10.18;8.82;;;;;;;-141.97;31.31;47182.75;5031974;28;20250;-84
2023/06/22 10:17:47;;;;;;;10.63;9.23;;;;;;;-141.97;30.88;47207.72;5032449;28;20598;-79
2023/06/22 10:20:13;;;;;;;10.88;9.48;;;;;;;-141.97;30.46;47196.19;5031003;28;20165;-81
2023/06/22 10:22:41;;;;;;;11.88;9.93;;;;;;;-141.97;30.43;47263.47;5031614;28;20719;-81
2023/06/22 10:25:07;;;;;;;10.55;9.55;;;;;;;-141.97;30.89;47130.84;5031210;28;20565;-82
2023/06/22 10:27:32;;;;;;;10.70;9.68;;;;;;;-141.97;30.52;47119.31;5031313;28;20613;-81
2023/06/22 10:29:57;;;;;;;10.23;9.23;;;;;;;-141.97;30.71;47273.06;5031839;28;20221;-82
2023/06/22 10:32:23;;;;;;;12.75;9.68;;;;;;;-141.97;30.94;47413.38;5031873;28;20173;-80
2023/06/22 10:34:48;;;;;;;10.48;9.20;;;;;;;-141.97;30.49;47261.53;5030687;28;20269;-81
2023/06/22 10:37:14;;;;;;;10.27;9.25;;;;;;;-141.97;31.08;47165.44;5031751;28;20174;-80
2023/06/22 10:39:39;;;;;;;10.48;9.38;;;;;;;-141.97;31.06;47592.13;5031640;28;20158;-82
2023/06/22 10:42:05;;;;;;;11.10;9.00;;;;;;;-141.97;30.80;47157.75;5032750;28;20170;-80
2023/06/22 10:44:30;;;;;;;11.32;10.15;;;;;;;-141.97;30.87;47246.16;5022987;28;20303;-81
2023/06/22 10:46:56;;;;;;;10.70;9.48;;;;;;;-141.97;30.75;47217.34;5029820;28;20181;-81
2023/06/22 10:49:21;;;;;;;10.38;9.32;;;;;;;-141.97;30.16;47188.50;5031459;28;20293;-83
2023/06/22 10:51:46;;;;;;;11.43;10.25;;;;;;;-141.97;30.23;47407.59;5032190;28;20154;-81
2023/06/22 10:54:13;;;;;;;10.10;9.10;;;;;;;-141.97;30.03;47634.41;5031894;28;20189;-81
2023/06/22 10:56:39;;;;;;;10.20;9.13;;;;;;;-141.97;30.22;47246.16;5031989;28;20594;-81
2023/06/22 10:59:05;;;;;;;11.25;9.25;;;;;;;-141.97;29.99;47236.56;5031953;28;20172;-81
2023/06/22 11:01:31;;;;;;;11.20;9.75;;;;;;;-141.97;30.45;47298.06;5031901;28;20248;-81